KSCH/SCH METAR and TAF weather

Enter ICAO airport designator
Station Type Date Time Source
KSCH METAR 2020/07/11 15:50 UTC NOAA

KSCH 111550Z 17007KT 15SM SCT030 30/22 A2965


Station Type Date Time Source
KSCH Decoded METAR 2020/07/11 15:50 UTC NOAA

Schenectady Airport, NY, United States (KSCH) 42-51N 073-56W
Jul 11, 2020 - 11:50 AM EDT / 2020.07.11 1550 UTC
Wind: from the S (170 degrees) at 8 MPH (7 KT):0
Visibility: 15 mile(s):0
Sky conditions: partly cloudy
Temperature: 86 F (30 C)
Heat index: 91.8 F (33.2 C):1
Dew Point: 71 F (22 C)
Relative Humidity: 62%
Pressure (altimeter): 29.65 in. Hg (1004 hPa)
ob: KSCH 111550Z 17007KT 15SM SCT030 30/22 A2965
cycle: 16

Station Type Date Time Source
KSCH TAF UTC NOAA

Error!

Example: see airport list